createdAt,value
2022-10-13T00:00:04.910Z,15.97
2022-10-13T00:02:34.347Z,16.70
2022-10-13T00:04:56.536Z,15.60
2022-10-13T00:07:19.672Z,12.33
2022-10-13T00:09:41.848Z,16.20
2022-10-13T00:12:04.097Z,14.50
2022-10-13T00:14:26.313Z,15.77
2022-10-13T00:16:48.506Z,18.03
2022-10-13T00:19:14.843Z,14.80
2022-10-13T00:21:37.308Z,20.00
2022-10-13T00:23:59.583Z,18.50
2022-10-13T00:26:23.716Z,18.63
2022-10-13T00:28:51.245Z,20.67
2022-10-13T00:31:16.123Z,14.37
2022-10-13T00:33:38.293Z,15.07
2022-10-13T00:36:00.490Z,13.57
2022-10-13T00:38:23.392Z,17.00
2022-10-13T00:40:45.549Z,17.63
2022-10-13T00:43:15.178Z,14.37
2022-10-13T00:45:37.426Z,15.43
2022-10-13T00:48:01.794Z,13.23
2022-10-13T00:50:30.413Z,15.63
2022-10-13T00:52:53.540Z,11.90
2022-10-13T00:55:21.291Z,11.10
2022-10-13T00:57:44.618Z,12.57
2022-10-13T01:00:07.278Z,14.50
2022-10-13T01:02:32.368Z,13.37
2022-10-13T01:04:54.577Z,12.07
2022-10-13T01:07:17.807Z,13.53
2022-10-13T01:09:42.195Z,12.80
2022-10-13T01:12:11.638Z,15.87
2022-10-13T01:14:37.355Z,14.57
2022-10-13T01:17:09.844Z,13.87
2022-10-13T01:19:42.899Z,14.43
2022-10-13T01:22:14.349Z,12.77
2022-10-13T01:24:42.284Z,16.37
2022-10-13T01:27:04.585Z,12.97
2022-10-13T01:29:45.763Z,14.37
2022-10-13T01:32:20.746Z,14.53
2022-10-13T01:34:46.190Z,13.63
2022-10-13T01:37:14.150Z,15.53
2022-10-13T01:39:40.446Z,12.97
2022-10-13T01:42:11.535Z,13.00
2022-10-13T01:44:35.688Z,12.60
2022-10-13T01:46:58.013Z,16.07
2022-10-13T01:49:22.221Z,19.03
2022-10-13T01:51:44.771Z,18.30
2022-10-13T01:54:07.420Z,12.60
2022-10-13T01:56:29.593Z,14.47
2022-10-13T01:58:52.608Z,15.93
2022-10-13T02:01:33.256Z,14.93
2022-10-13T02:04:03.701Z,13.80
2022-10-13T02:06:31.886Z,11.27
2022-10-13T02:09:18.575Z,16.77
2022-10-13T02:11:45.015Z,18.53
2022-10-13T02:14:11.569Z,18.57
2022-10-13T02:16:36.172Z,18.37
2022-10-13T02:18:58.812Z,18.50
2022-10-13T02:21:20.960Z,18.53
2022-10-13T02:23:45.472Z,16.67
2022-10-13T02:26:07.639Z,18.97
2022-10-13T02:28:29.895Z,19.37
2022-10-13T02:30:52.193Z,24.97
2022-10-13T02:33:14.650Z,23.23
2022-10-13T02:35:36.844Z,21.70
2022-10-13T02:37:59.650Z,23.80
2022-10-13T02:40:22.168Z,26.17
2022-10-13T02:42:44.537Z,25.27
2022-10-13T02:45:07.068Z,38.30
2022-10-13T02:47:29.638Z,37.63
2022-10-13T02:49:51.902Z,28.20
2022-10-13T02:52:14.337Z,31.13
2022-10-13T02:54:37.376Z,30.10
2022-10-13T02:56:59.533Z,32.87
2022-10-13T02:59:21.758Z,29.93
2022-10-13T03:01:44.625Z,33.67
2022-10-13T03:04:06.801Z,36.93
2022-10-13T03:06:28.992Z,39.33
2022-10-13T03:08:51.228Z,39.80
2022-10-13T03:11:13.776Z,37.63
2022-10-13T03:13:37.132Z,42.37
2022-10-13T03:16:01.738Z,36.70
2022-10-13T03:18:23.965Z,33.40
2022-10-13T03:20:55.741Z,40.20
2022-10-13T03:23:17.936Z,38.57
2022-10-13T03:25:40.133Z,37.87
2022-10-13T03:28:02.640Z,35.53
2022-10-13T03:30:24.871Z,39.30
2022-10-13T03:32:47.212Z,30.03
2022-10-13T03:35:09.680Z,30.27
2022-10-13T03:37:32.126Z,32.00
2022-10-13T03:39:54.281Z,35.93
2022-10-13T03:42:16.947Z,36.03
2022-10-13T03:44:39.773Z,35.70
2022-10-13T03:47:01.949Z,39.50
2022-10-13T03:49:24.112Z,37.23
2022-10-13T03:51:47.427Z,38.17
2022-10-13T03:54:12.301Z,44.43
2022-10-13T03:56:34.455Z,41.30
2022-10-13T03:58:57.961Z,31.93
2022-10-13T04:01:20.533Z,33.27
2022-10-13T04:03:43.933Z,39.87
2022-10-13T04:06:06.877Z,35.00
2022-10-13T04:08:30.512Z,33.07
2022-10-13T04:10:58.921Z,32.50
2022-10-13T04:13:21.083Z,31.13
2022-10-13T04:15:47.216Z,33.37
2022-10-13T04:18:09.955Z,43.13
2022-10-13T04:20:32.119Z,32.60
2022-10-13T04:22:54.328Z,33.13
2022-10-13T04:25:16.555Z,32.07
2022-10-13T04:27:39.457Z,31.50
2022-10-13T04:30:01.672Z,33.43
2022-10-13T04:32:23.836Z,27.47
2022-10-13T04:34:46.041Z,33.97
2022-10-13T04:37:08.222Z,32.97
2022-10-13T04:39:42.792Z,27.63
2022-10-13T04:42:05.122Z,30.97
2022-10-13T04:44:27.316Z,37.13
2022-10-13T04:46:49.759Z,30.83
2022-10-13T04:49:11.957Z,33.33
2022-10-13T04:51:34.237Z,30.67
2022-10-13T04:54:01.959Z,31.53
2022-10-13T04:56:24.174Z,36.80
2022-10-13T04:58:46.728Z,33.57
2022-10-13T05:01:12.237Z,36.23
2022-10-13T05:03:34.556Z,30.10
2022-10-13T05:05:56.736Z,32.03
2022-10-13T05:08:18.944Z,28.17
2022-10-13T05:10:41.154Z,29.10
2022-10-13T05:13:03.691Z,34.70
2022-10-13T05:15:25.950Z,32.53
2022-10-13T05:17:48.108Z,33.33
2022-10-13T05:20:10.679Z,31.33
2022-10-13T05:22:32.949Z,27.77
2022-10-13T05:24:55.085Z,34.13
2022-10-13T05:27:17.293Z,27.87
2022-10-13T05:29:40.039Z,31.93
2022-10-13T05:32:02.265Z,32.90
2022-10-13T05:34:24.581Z,37.60
2022-10-13T05:36:46.782Z,29.77
2022-10-13T05:39:15.657Z,28.87
2022-10-13T05:41:39.199Z,29.97
2022-10-13T05:44:09.956Z,30.07
2022-10-13T05:46:37.587Z,34.53
2022-10-13T05:48:59.810Z,34.57
2022-10-13T05:51:26.260Z,31.57
2022-10-13T05:53:55.362Z,29.57
2022-10-13T05:56:22.393Z,31.40
2022-10-13T05:58:46.956Z,34.03
2022-10-13T06:01:10.988Z,29.37
2022-10-13T06:03:33.497Z,27.43
2022-10-13T06:05:55.676Z,30.20
2022-10-13T06:08:18.040Z,33.70
2022-10-13T06:10:42.305Z,29.77
2022-10-13T06:13:04.528Z,28.53
2022-10-13T06:15:28.351Z,37.67
2022-10-13T06:17:51.769Z,70.97
2022-10-13T06:20:13.984Z,35.67
2022-10-13T06:22:36.717Z,42.33
2022-10-13T06:24:58.925Z,26.63
2022-10-13T06:27:21.137Z,28.80
2022-10-13T06:29:46.255Z,38.37
2022-10-13T06:32:08.486Z,30.57
2022-10-13T06:34:30.713Z,30.37
2022-10-13T06:36:53.120Z,26.60
2022-10-13T06:39:15.315Z,32.03
2022-10-13T06:41:37.539Z,33.30
2022-10-13T06:43:59.871Z,32.00
2022-10-13T06:46:24.815Z,32.00
2022-10-13T06:48:49.910Z,42.47
2022-10-13T06:51:12.619Z,33.20
2022-10-13T06:53:35.026Z,30.07
2022-10-13T06:55:58.014Z,31.50
2022-10-13T06:58:20.266Z,29.70
2022-10-13T07:00:42.853Z,28.53
2022-10-13T07:03:05.927Z,30.97
2022-10-13T07:05:28.128Z,30.77
2022-10-13T07:07:53.876Z,34.00
2022-10-13T07:10:16.093Z,30.07
2022-10-13T07:12:38.613Z,27.77
2022-10-13T07:15:00.908Z,35.07
2022-10-13T07:17:23.394Z,26.80
2022-10-13T07:19:48.557Z,29.17
2022-10-13T07:22:10.775Z,30.23
2022-10-13T07:24:35.303Z,27.83
2022-10-13T07:26:58.059Z,29.07
2022-10-13T07:29:20.608Z,33.80
2022-10-13T07:31:47.948Z,32.30
2022-10-13T07:34:10.793Z,33.87
2022-10-13T07:36:42.174Z,35.23
2022-10-13T07:39:11.027Z,30.93
2022-10-13T07:41:33.570Z,29.53
2022-10-13T07:44:00.611Z,27.47
2022-10-13T07:46:29.846Z,29.27
2022-10-13T07:48:56.345Z,30.30
2022-10-13T07:51:22.365Z,31.97
2022-10-13T07:53:46.851Z,28.50
2022-10-13T07:58:57.621Z,25.00
2022-10-13T08:01:36.691Z,32.00
2022-10-13T08:03:59.409Z,31.17
2022-10-13T08:06:24.717Z,25.87
2022-10-13T08:09:35.955Z,25.77
2022-10-13T08:12:00.846Z,24.77
2022-10-13T08:14:28.851Z,30.03
2022-10-13T08:16:53.687Z,24.27
2022-10-13T08:19:22.246Z,31.40
2022-10-13T08:22:01.790Z,27.93
2022-10-13T08:24:37.324Z,30.93
2022-10-13T08:27:04.270Z,26.80
2022-10-13T08:29:31.072Z,23.50
2022-10-13T08:31:56.214Z,28.83
2022-10-13T08:34:45.482Z,30.47
2022-10-13T08:37:16.865Z,25.10
2022-10-13T08:39:49.350Z,27.97
2022-10-13T08:42:18.644Z,24.97
2022-10-13T08:47:45.132Z,30.47
2022-10-13T08:50:21.865Z,26.83
2022-10-13T08:52:57.131Z,30.13
2022-10-13T08:55:31.172Z,33.63
2022-10-13T08:57:55.062Z,26.77
2022-10-13T09:00:29.032Z,26.47
2022-10-13T09:02:54.564Z,25.20
2022-10-13T09:08:07.807Z,29.02
2022-10-13T09:10:33.932Z,23.23
2022-10-13T09:13:06.309Z,25.40
2022-10-13T09:15:42.792Z,23.65
2022-10-13T09:18:16.764Z,29.67
2022-10-13T09:20:39.924Z,24.98
2022-10-13T09:23:08.210Z,28.17
2022-10-13T09:28:14.585Z,23.48
2022-10-13T09:30:38.941Z,21.77
2022-10-13T09:33:13.403Z,21.38
2022-10-13T09:35:42.066Z,21.20
2022-10-13T09:38:30.429Z,21.25
2022-10-13T09:41:03.828Z,20.95
2022-10-13T09:46:28.738Z,19.15
2022-10-13T09:49:06.748Z,18.65
2022-10-13T09:51:32.935Z,18.98
2022-10-13T09:54:00.608Z,17.95
2022-10-13T09:56:44.979Z,17.75
2022-10-13T09:59:26.254Z,17.50
2022-10-13T10:01:52.156Z,20.35
2022-10-13T10:04:18.384Z,17.45
2022-10-13T10:06:44.329Z,20.48
2022-10-13T10:09:27.547Z,20.42
2022-10-13T10:11:52.641Z,19.23
2022-10-13T10:14:32.706Z,19.92
2022-10-13T10:17:03.353Z,17.98
2022-10-13T10:19:34.586Z,21.38
2022-10-13T10:21:57.440Z,21.85
2022-10-13T10:24:47.216Z,23.48
2022-10-13T10:27:32.707Z,19.25
2022-10-13T10:30:05.569Z,21.38
2022-10-13T10:32:46.943Z,18.75
2022-10-13T10:35:15.436Z,18.98
2022-10-13T10:37:40.840Z,19.75
2022-10-13T10:40:31.644Z,19.63
2022-10-13T10:43:12.709Z,17.92
2022-10-13T10:45:41.614Z,18.23
2022-10-13T10:48:08.149Z,19.58
2022-10-13T10:50:32.377Z,20.17
2022-10-13T10:53:12.790Z,17.17
2022-10-13T10:56:10.083Z,21.75
2022-10-13T10:58:46.506Z,17.42
2022-10-13T11:01:13.068Z,15.95
2022-10-13T11:03:45.929Z,19.85
2022-10-13T11:06:17.494Z,16.48
2022-10-13T11:08:47.364Z,19.70
2022-10-13T11:11:26.731Z,16.42
2022-10-13T11:14:06.463Z,15.68
2022-10-13T11:16:35.264Z,19.00
2022-10-13T11:19:34.368Z,21.33
2022-10-13T11:22:02.933Z,22.52
2022-10-13T11:24:48.925Z,16.73
2022-10-13T11:27:19.448Z,15.23
2022-10-13T11:29:46.820Z,17.17
2022-10-13T11:32:30.135Z,20.40
2022-10-13T11:35:26.756Z,18.75
2022-10-13T11:38:07.808Z,21.90
2022-10-13T11:40:49.961Z,15.27
2022-10-13T11:43:15.374Z,18.10
2022-10-13T11:46:16.233Z,20.80
2022-10-13T11:48:57.609Z,18.42
2022-10-13T11:51:33.251Z,17.88
2022-10-13T11:54:18.681Z,16.55
2022-10-13T11:56:48.288Z,17.17
2022-10-13T11:59:35.817Z,17.40
2022-10-13T12:02:06.756Z,17.75
2022-10-13T12:04:31.165Z,17.15
2022-10-13T12:06:59.231Z,17.95
2022-10-13T12:12:16.043Z,18.05
2022-10-13T12:14:46.082Z,15.43
2022-10-13T12:17:31.550Z,17.60
2022-10-13T12:20:00.447Z,17.25
2022-10-13T12:22:26.974Z,19.95
2022-10-13T12:24:59.047Z,17.63
2022-10-13T12:27:25.265Z,24.13
2022-10-13T12:29:50.497Z,17.42
2022-10-13T12:32:26.637Z,20.70
2022-10-13T12:35:00.688Z,16.02
2022-10-13T12:37:33.426Z,20.08
2022-10-13T12:39:57.716Z,17.45
2022-10-13T12:42:27.715Z,20.77
2022-10-13T12:44:53.521Z,23.42
2022-10-13T12:47:40.903Z,19.88
2022-10-13T12:50:22.870Z,16.60
2022-10-13T12:52:46.440Z,21.00
2022-10-13T12:55:16.393Z,19.85
2022-10-13T13:00:35.277Z,17.85
2022-10-13T13:03:01.586Z,18.73
2022-10-13T13:05:53.600Z,23.73
2022-10-13T13:08:29.374Z,20.10
2022-10-13T13:10:58.493Z,21.23
2022-10-13T13:13:22.993Z,24.58
2022-10-13T13:15:45.258Z,24.67
2022-10-13T13:18:26.410Z,21.60
2022-10-13T13:20:48.691Z,23.70
2022-10-13T13:23:11.513Z,33.90
2022-10-13T13:25:33.821Z,22.63
2022-10-13T13:27:56.270Z,22.03
2022-10-13T13:30:20.152Z,20.85
2022-10-13T13:32:43.421Z,22.75
2022-10-13T13:35:08.847Z,26.98
2022-10-13T13:37:55.272Z,22.13
2022-10-13T13:40:23.802Z,28.85
2022-10-13T13:42:55.247Z,21.80
2022-10-13T13:45:35.945Z,21.75
2022-10-13T13:48:04.027Z,23.15
2022-10-13T13:50:27.438Z,23.23
2022-10-13T13:52:55.257Z,26.92
2022-10-13T13:55:17.730Z,25.25
2022-10-13T13:57:42.833Z,24.70
2022-10-13T14:00:12.448Z,27.17
2022-10-13T14:02:34.758Z,23.45
2022-10-13T14:05:00.502Z,25.73
2022-10-13T14:07:23.938Z,21.98
2022-10-13T14:09:56.531Z,24.60
2022-10-13T14:12:21.876Z,27.15
2022-10-13T14:14:45.769Z,24.75
2022-10-13T14:17:08.924Z,21.85
2022-10-13T14:22:12.180Z,28.25
2022-10-13T14:24:35.057Z,27.50
2022-10-13T14:26:58.151Z,23.30
2022-10-13T14:29:20.574Z,25.42
2022-10-13T14:31:43.062Z,25.33
2022-10-13T14:34:05.412Z,22.35
2022-10-13T14:36:33.881Z,25.58
2022-10-13T14:38:56.290Z,26.55
2022-10-13T14:41:19.363Z,24.10
2022-10-13T14:43:45.174Z,27.27
2022-10-13T14:46:21.333Z,23.45
2022-10-13T14:48:43.794Z,27.30
2022-10-13T14:51:09.997Z,27.92
2022-10-13T14:53:35.893Z,22.35
2022-10-13T14:55:58.349Z,27.50
2022-10-13T14:58:22.969Z,25.23
2022-10-13T15:00:45.409Z,24.35
2022-10-13T15:03:07.699Z,21.92
2022-10-13T15:05:30.202Z,26.13
2022-10-13T15:07:52.586Z,14.20
2022-10-13T15:10:19.037Z,17.85
2022-10-13T15:12:47.429Z,20.00
2022-10-13T15:15:12.934Z,18.47
2022-10-13T15:17:37.518Z,15.83
2022-10-13T15:19:59.964Z,16.13
2022-10-13T15:22:22.932Z,16.27
2022-10-13T15:24:56.094Z,14.70
2022-10-13T15:27:21.492Z,14.83
2022-10-13T15:29:54.403Z,16.87
2022-10-13T15:32:29.935Z,18.08
2022-10-13T15:34:56.126Z,17.38
2022-10-13T15:37:19.749Z,15.83
2022-10-13T15:39:44.858Z,13.20
2022-10-13T15:42:07.097Z,13.63
2022-10-13T15:44:51.003Z,10.77
2022-10-13T15:47:17.068Z,14.50
2022-10-13T15:49:41.685Z,13.70
2022-10-13T15:52:07.804Z,11.90
2022-10-13T15:54:30.148Z,10.90
2022-10-13T15:56:52.412Z,13.23
2022-10-13T15:59:18.073Z,15.93
2022-10-13T16:01:40.413Z,12.52
2022-10-13T16:04:02.902Z,12.38
2022-10-13T16:06:26.592Z,10.80
2022-10-13T16:08:51.589Z,14.17
2022-10-13T16:11:16.011Z,10.85
2022-10-13T16:13:38.472Z,13.55
2022-10-13T16:16:01.358Z,14.00
2022-10-13T16:18:26.634Z,9.67
2022-10-13T16:20:48.872Z,11.70
2022-10-13T16:23:11.169Z,11.60
2022-10-13T16:25:42.153Z,13.70
2022-10-13T16:28:04.796Z,10.52
2022-10-13T16:30:31.630Z,12.05
2022-10-13T16:32:54.246Z,12.90
2022-10-13T16:35:23.087Z,9.30
2022-10-13T16:37:46.429Z,11.07
2022-10-13T16:40:12.646Z,10.45
2022-10-13T16:42:34.992Z,12.37
2022-10-13T16:44:57.639Z,8.73
2022-10-13T16:47:23.032Z,15.13
2022-10-13T16:49:45.577Z,14.60
2022-10-13T16:52:10.162Z,10.70
2022-10-13T16:54:33.919Z,10.13
2022-10-13T16:57:00.996Z,15.10
2022-10-13T16:59:28.961Z,11.93
2022-10-13T17:01:51.600Z,12.87
2022-10-13T17:04:18.512Z,14.43
2022-10-13T17:06:47.103Z,15.37
2022-10-13T17:09:15.488Z,13.97
2022-10-13T17:11:40.841Z,14.73
2022-10-13T17:14:07.396Z,11.13
2022-10-13T17:16:30.097Z,13.00
2022-10-13T17:18:52.311Z,12.70
2022-10-13T17:21:15.856Z,12.37
2022-10-13T17:23:38.444Z,10.87
2022-10-13T17:26:08.594Z,13.00
2022-10-13T17:28:30.907Z,13.27
2022-10-13T17:30:58.635Z,13.43
2022-10-13T17:33:21.018Z,11.17
2022-10-13T17:35:43.468Z,14.30
2022-10-13T17:38:06.350Z,14.50
2022-10-13T17:40:28.708Z,14.77
2022-10-13T17:42:53.718Z,10.67
2022-10-13T17:45:20.038Z,13.07
2022-10-13T17:47:58.594Z,12.97
2022-10-13T17:50:26.489Z,11.40
2022-10-13T17:52:48.932Z,8.17
2022-10-13T17:55:12.546Z,9.27
2022-10-13T17:57:34.805Z,9.50
2022-10-13T18:00:07.220Z,7.27
2022-10-13T18:02:34.691Z,11.30
2022-10-13T18:04:56.929Z,9.53
2022-10-13T18:07:19.526Z,14.30
2022-10-13T18:09:42.412Z,11.43
2022-10-13T18:12:07.708Z,7.93
2022-10-13T18:14:38.739Z,12.47
2022-10-13T18:17:01.940Z,10.60
2022-10-13T18:19:24.189Z,9.00
2022-10-13T18:21:46.486Z,14.67
2022-10-13T18:24:12.480Z,8.83
2022-10-13T18:26:35.948Z,9.03
2022-10-13T18:29:02.549Z,10.00
2022-10-13T18:31:29.230Z,10.40
2022-10-13T18:34:03.566Z,9.50
2022-10-13T18:36:28.439Z,9.00
2022-10-13T18:39:02.983Z,11.23
2022-10-13T18:41:28.589Z,13.10
2022-10-13T18:43:51.044Z,12.37
2022-10-13T18:46:24.249Z,10.57
2022-10-13T18:48:50.638Z,12.70
2022-10-13T18:51:20.244Z,11.20
2022-10-13T18:53:43.667Z,11.53
2022-10-13T18:56:08.411Z,9.37
2022-10-13T18:58:32.813Z,8.80
2022-10-13T19:01:01.500Z,14.70
2022-10-13T19:03:24.100Z,10.30
2022-10-13T19:05:46.942Z,13.73
2022-10-13T19:08:09.912Z,10.27
2022-10-13T19:10:33.022Z,9.70
2022-10-13T19:12:55.415Z,8.03
2022-10-13T19:15:22.852Z,8.60
2022-10-13T19:17:45.865Z,9.23
2022-10-13T19:20:10.862Z,7.13
2022-10-13T19:22:34.625Z,7.30
2022-10-13T19:25:04.513Z,8.00
2022-10-13T19:27:30.217Z,7.37
2022-10-13T19:29:56.997Z,10.17
2022-10-13T19:32:19.244Z,6.80
2022-10-13T19:34:41.601Z,7.83
2022-10-13T19:37:09.303Z,8.27
2022-10-13T19:39:40.740Z,11.27
2022-10-13T19:42:03.004Z,5.73
2022-10-13T19:44:25.501Z,7.03
2022-10-13T19:46:50.388Z,11.23
2022-10-13T19:49:20.662Z,6.97
2022-10-13T19:51:42.982Z,9.40
2022-10-13T19:54:08.921Z,7.10
2022-10-13T19:56:39.482Z,6.27
2022-10-13T19:59:06.933Z,5.27
2022-10-13T20:01:29.137Z,7.80
2022-10-13T20:03:53.465Z,9.70
2022-10-13T20:06:16.074Z,6.07
2022-10-13T20:08:44.770Z,8.10
2022-10-13T20:11:07.970Z,6.10
2022-10-13T20:13:33.379Z,8.50
2022-10-13T20:15:56.021Z,6.73
2022-10-13T20:18:18.437Z,6.77
2022-10-13T20:20:49.659Z,5.87
2022-10-13T20:23:18.928Z,7.87
2022-10-13T20:25:42.269Z,8.57
2022-10-13T20:28:05.066Z,9.53
2022-10-13T20:30:29.649Z,7.20
2022-10-13T20:32:52.967Z,8.80
2022-10-13T20:35:18.353Z,9.97
2022-10-13T20:37:40.667Z,8.47
2022-10-13T20:40:03.253Z,9.80
2022-10-13T20:42:26.790Z,8.40
2022-10-13T20:44:51.796Z,7.93
2022-10-13T20:47:14.210Z,8.10
2022-10-13T20:49:51.942Z,13.27
2022-10-13T20:52:38.601Z,8.43
2022-10-13T20:57:52.328Z,9.37
2022-10-13T21:00:23.942Z,8.13
2022-10-13T21:02:47.622Z,9.07
2022-10-13T21:05:09.870Z,7.70
2022-10-13T21:07:33.028Z,8.93
2022-10-13T21:09:55.285Z,8.33
2022-10-13T21:12:17.605Z,8.03
2022-10-13T21:14:39.811Z,7.60
2022-10-13T21:17:02.033Z,9.70
2022-10-13T21:19:24.228Z,8.60
2022-10-13T21:21:46.669Z,12.20
2022-10-13T21:24:09.054Z,9.53
2022-10-13T21:26:32.149Z,13.40
2022-10-13T21:28:54.389Z,9.30
2022-10-13T21:31:17.463Z,9.83
2022-10-13T21:33:40.503Z,8.83
2022-10-13T21:36:05.710Z,10.13
2022-10-13T21:38:28.145Z,9.40
2022-10-13T21:40:53.764Z,8.83
2022-10-13T21:43:16.130Z,8.10
2022-10-13T21:45:38.471Z,7.83
2022-10-13T21:48:00.637Z,8.60
2022-10-13T21:50:34.921Z,10.67
2022-10-13T21:52:57.226Z,6.57
2022-10-13T21:55:21.038Z,8.27
2022-10-13T21:57:43.247Z,10.20
2022-10-13T22:00:05.941Z,7.87
2022-10-13T22:02:34.846Z,8.77
2022-10-13T22:04:57.010Z,10.50
2022-10-13T22:07:19.476Z,8.47
2022-10-13T22:09:41.845Z,11.27
2022-10-13T22:12:04.140Z,9.00
2022-10-13T22:14:26.402Z,11.30
2022-10-13T22:16:49.320Z,12.17
2022-10-13T22:19:11.751Z,11.40
2022-10-13T22:21:35.585Z,10.07
2022-10-13T22:24:06.947Z,13.03
2022-10-13T22:26:30.053Z,12.93
2022-10-13T22:28:52.445Z,15.50
2022-10-13T22:31:14.708Z,12.77
2022-10-13T22:33:37.795Z,16.00
2022-10-13T22:35:59.997Z,12.80
2022-10-13T22:38:22.315Z,18.00
2022-10-13T22:40:44.475Z,14.17
2022-10-13T22:43:06.805Z,12.70
2022-10-13T22:45:29.079Z,11.13
2022-10-13T22:47:52.074Z,15.87
2022-10-13T22:50:14.334Z,12.50
2022-10-13T22:52:36.510Z,12.83
2022-10-13T22:54:58.749Z,14.67
2022-10-13T22:57:21.335Z,13.97
2022-10-13T22:59:45.342Z,11.17
2022-10-13T23:02:08.019Z,12.07
2022-10-13T23:04:31.617Z,13.13
2022-10-13T23:06:53.856Z,12.50
2022-10-13T23:09:16.026Z,16.47
2022-10-13T23:11:38.579Z,14.93
2022-10-13T23:14:02.310Z,13.93
2022-10-13T23:16:25.363Z,14.37
2022-10-13T23:18:47.901Z,14.70
2022-10-13T23:21:20.162Z,13.73
2022-10-13T23:23:42.570Z,14.23
2022-10-13T23:26:05.500Z,15.10
2022-10-13T23:28:27.776Z,14.80
2022-10-13T23:30:51.008Z,12.13
2022-10-13T23:33:13.413Z,13.77
2022-10-13T23:35:37.621Z,11.87
2022-10-13T23:37:59.828Z,14.60
2022-10-13T23:40:23.859Z,12.00
2022-10-13T23:42:46.048Z,15.83
2022-10-13T23:45:08.469Z,15.03
2022-10-13T23:47:30.693Z,16.07
2022-10-13T23:49:52.861Z,13.03
2022-10-13T23:52:15.033Z,16.20
2022-10-13T23:54:37.272Z,16.83
2022-10-13T23:56:59.718Z,14.33
2022-10-13T23:59:21.875Z,15.40
